sensor_id;sensor_type;location;lat;lon;timestamp;P1;durP1;ratioP1;P2;durP2;ratioP2
8480;SDS011;4277;51.354;6.740;2023-02-01T00:02:10;15.60;;;6.10;;
8480;SDS011;4277;51.354;6.740;2023-02-01T00:04:36;15.83;;;5.43;;
8480;SDS011;4277;51.354;6.740;2023-02-01T00:07:02;17.53;;;5.70;;
8480;SDS011;4277;51.354;6.740;2023-02-01T00:09:28;12.33;;;5.67;;
8480;SDS011;4277;51.354;6.740;2023-02-01T00:11:54;14.90;;;5.60;;
8480;SDS011;4277;51.354;6.740;2023-02-01T00:14:24;17.97;;;6.10;;
8480;SDS011;4277;51.354;6.740;2023-02-01T00:16:50;14.40;;;5.50;;
8480;SDS011;4277;51.354;6.740;2023-02-01T00:19:16;16.23;;;5.57;;
8480;SDS011;4277;51.354;6.740;2023-02-01T00:21:42;13.77;;;5.80;;
8480;SDS011;4277;51.354;6.740;2023-02-01T00:24:09;17.13;;;6.20;;
8480;SDS011;4277;51.354;6.740;2023-02-01T00:26:43;21.40;;;6.27;;
8480;SDS011;4277;51.354;6.740;2023-02-01T00:29:11;15.30;;;6.00;;
8480;SDS011;4277;51.354;6.740;2023-02-01T00:31:37;15.30;;;5.57;;
8480;SDS011;4277;51.354;6.740;2023-02-01T00:34:03;15.70;;;6.70;;
8480;SDS011;4277;51.354;6.740;2023-02-01T00:36:29;15.80;;;7.27;;
8480;SDS011;4277;51.354;6.740;2023-02-01T00:38:56;19.83;;;7.20;;
8480;SDS011;4277;51.354;6.740;2023-02-01T00:41:22;19.77;;;7.73;;
8480;SDS011;4277;51.354;6.740;2023-02-01T00:43:49;17.70;;;7.10;;
8480;SDS011;4277;51.354;6.740;2023-02-01T00:46:15;21.50;;;8.57;;
8480;SDS011;4277;51.354;6.740;2023-02-01T00:48:41;19.97;;;9.53;;
8480;SDS011;4277;51.354;6.740;2023-02-01T00:51:08;19.50;;;9.87;;
8480;SDS011;4277;51.354;6.740;2023-02-01T00:53:35;19.90;;;8.97;;
8480;SDS011;4277;51.354;6.740;2023-02-01T00:56:01;20.57;;;8.77;;
8480;SDS011;4277;51.354;6.740;2023-02-01T00:58:27;19.20;;;8.47;;
8480;SDS011;4277;51.354;6.740;2023-02-01T01:01:03;22.60;;;8.20;;
8480;SDS011;4277;51.354;6.740;2023-02-01T01:03:30;21.83;;;8.50;;
8480;SDS011;4277;51.354;6.740;2023-02-01T01:05:58;19.40;;;8.40;;
8480;SDS011;4277;51.354;6.740;2023-02-01T01:08:24;16.43;;;7.73;;
8480;SDS011;4277;51.354;6.740;2023-02-01T01:10:50;17.77;;;7.53;;
8480;SDS011;4277;51.354;6.740;2023-02-01T01:13:16;18.13;;;7.53;;
8480;SDS011;4277;51.354;6.740;2023-02-01T01:15:42;20.50;;;6.97;;
8480;SDS011;4277;51.354;6.740;2023-02-01T01:18:08;20.47;;;6.97;;
8480;SDS011;4277;51.354;6.740;2023-02-01T01:20:35;20.10;;;7.00;;
8480;SDS011;4277;51.354;6.740;2023-02-01T01:23:01;14.23;;;6.57;;
8480;SDS011;4277;51.354;6.740;2023-02-01T01:25:27;18.37;;;6.23;;
8480;SDS011;4277;51.354;6.740;2023-02-01T01:27:53;18.60;;;6.97;;
8480;SDS011;4277;51.354;6.740;2023-02-01T01:30:19;17.63;;;6.30;;
8480;SDS011;4277;51.354;6.740;2023-02-01T01:32:45;13.23;;;5.30;;
8480;SDS011;4277;51.354;6.740;2023-02-01T01:35:11;13.27;;;6.10;;
8480;SDS011;4277;51.354;6.740;2023-02-01T01:37:37;18.30;;;5.87;;
8480;SDS011;4277;51.354;6.740;2023-02-01T01:40:04;14.50;;;6.10;;
8480;SDS011;4277;51.354;6.740;2023-02-01T01:42:30;16.77;;;5.60;;
8480;SDS011;4277;51.354;6.740;2023-02-01T01:47:22;16.43;;;5.60;;
8480;SDS011;4277;51.354;6.740;2023-02-01T01:49:48;15.70;;;5.17;;
8480;SDS011;4277;51.354;6.740;2023-02-01T01:52:14;14.57;;;4.67;;
8480;SDS011;4277;51.354;6.740;2023-02-01T01:54:41;15.30;;;4.77;;
8480;SDS011;4277;51.354;6.740;2023-02-01T01:57:09;15.17;;;4.83;;
8480;SDS011;4277;51.354;6.740;2023-02-01T01:59:36;14.63;;;4.17;;
8480;SDS011;4277;51.354;6.740;2023-02-01T02:02:04;15.13;;;4.80;;
8480;SDS011;4277;51.354;6.740;2023-02-01T02:04:30;13.87;;;4.97;;
8480;SDS011;4277;51.354;6.740;2023-02-01T02:06:59;18.40;;;5.27;;
8480;SDS011;4277;51.354;6.740;2023-02-01T02:09:26;14.57;;;5.13;;
8480;SDS011;4277;51.354;6.740;2023-02-01T02:11:52;16.43;;;4.97;;
8480;SDS011;4277;51.354;6.740;2023-02-01T02:14:18;14.87;;;4.27;;
8480;SDS011;4277;51.354;6.740;2023-02-01T02:16:49;12.40;;;4.43;;
8480;SDS011;4277;51.354;6.740;2023-02-01T02:19:32;13.97;;;4.30;;
8480;SDS011;4277;51.354;6.740;2023-02-01T02:37:37;15.10;;;4.23;;
8480;SDS011;4277;51.354;6.740;2023-02-01T02:45:38;16.30;;;4.33;;
8480;SDS011;4277;51.354;6.740;2023-02-01T02:48:44;16.73;;;4.17;;
8480;SDS011;4277;51.354;6.740;2023-02-01T02:51:15;17.90;;;3.90;;
8480;SDS011;4277;51.354;6.740;2023-02-01T02:54:05;16.97;;;3.80;;
8480;SDS011;4277;51.354;6.740;2023-02-01T02:56:51;15.70;;;4.27;;
8480;SDS011;4277;51.354;6.740;2023-02-01T02:59:37;16.73;;;4.33;;
8480;SDS011;4277;51.354;6.740;2023-02-01T03:02:22;16.20;;;3.67;;
8480;SDS011;4277;51.354;6.740;2023-02-01T03:05:07;14.03;;;4.20;;
8480;SDS011;4277;51.354;6.740;2023-02-01T03:07:46;15.43;;;4.03;;
8480;SDS011;4277;51.354;6.740;2023-02-01T03:13:03;11.10;;;3.70;;
8480;SDS011;4277;51.354;6.740;2023-02-01T03:15:38;16.53;;;3.87;;
8480;SDS011;4277;51.354;6.740;2023-02-01T03:18:08;17.40;;;4.10;;
8480;SDS011;4277;51.354;6.740;2023-02-01T03:20:37;16.00;;;3.83;;
8480;SDS011;4277;51.354;6.740;2023-02-01T03:23:04;14.13;;;4.00;;
8480;SDS011;4277;51.354;6.740;2023-02-01T03:25:31;18.17;;;4.13;;
8480;SDS011;4277;51.354;6.740;2023-02-01T03:28:00;18.97;;;4.70;;
8480;SDS011;4277;51.354;6.740;2023-02-01T03:30:33;18.93;;;4.20;;
8480;SDS011;4277;51.354;6.740;2023-02-01T03:33:00;17.77;;;4.40;;
8480;SDS011;4277;51.354;6.740;2023-02-01T03:41:03;11.47;;;3.70;;
8480;SDS011;4277;51.354;6.740;2023-02-01T03:43:35;14.40;;;3.97;;
8480;SDS011;4277;51.354;6.740;2023-02-01T03:46:04;18.67;;;4.67;;
8480;SDS011;4277;51.354;6.740;2023-02-01T03:48:32;17.63;;;3.93;;
8480;SDS011;4277;51.354;6.740;2023-02-01T03:51:00;15.33;;;4.83;;
8480;SDS011;4277;51.354;6.740;2023-02-01T03:53:27;17.60;;;4.77;;
8480;SDS011;4277;51.354;6.740;2023-02-01T03:55:54;13.80;;;4.23;;
8480;SDS011;4277;51.354;6.740;2023-02-01T03:58:20;12.73;;;3.93;;
8480;SDS011;4277;51.354;6.740;2023-02-01T04:00:50;12.13;;;3.10;;
8480;SDS011;4277;51.354;6.740;2023-02-01T04:03:16;18.00;;;4.03;;
8480;SDS011;4277;51.354;6.740;2023-02-01T04:05:42;16.50;;;4.10;;
8480;SDS011;4277;51.354;6.740;2023-02-01T04:08:08;20.77;;;4.30;;
8480;SDS011;4277;51.354;6.740;2023-02-01T04:10:34;16.07;;;3.90;;
8480;SDS011;4277;51.354;6.740;2023-02-01T04:13:00;20.57;;;4.67;;
8480;SDS011;4277;51.354;6.740;2023-02-01T04:15:26;13.07;;;3.97;;
8480;SDS011;4277;51.354;6.740;2023-02-01T04:17:52;17.70;;;4.43;;
8480;SDS011;4277;51.354;6.740;2023-02-01T04:20:18;13.07;;;3.40;;
8480;SDS011;4277;51.354;6.740;2023-02-01T04:22:44;14.20;;;4.03;;
8480;SDS011;4277;51.354;6.740;2023-02-01T04:25:10;19.73;;;4.33;;
8480;SDS011;4277;51.354;6.740;2023-02-01T04:27:36;12.97;;;4.33;;
8480;SDS011;4277;51.354;6.740;2023-02-01T04:30:03;18.17;;;4.60;;
8480;SDS011;4277;51.354;6.740;2023-02-01T04:32:29;17.27;;;4.27;;
8480;SDS011;4277;51.354;6.740;2023-02-01T04:34:55;14.67;;;4.07;;
8480;SDS011;4277;51.354;6.740;2023-02-01T04:37:21;13.63;;;3.53;;
8480;SDS011;4277;51.354;6.740;2023-02-01T04:39:47;20.67;;;3.90;;
8480;SDS011;4277;51.354;6.740;2023-02-01T04:42:13;12.23;;;3.80;;
8480;SDS011;4277;51.354;6.740;2023-02-01T04:44:39;16.60;;;4.23;;
8480;SDS011;4277;51.354;6.740;2023-02-01T04:47:06;17.07;;;3.70;;
8480;SDS011;4277;51.354;6.740;2023-02-01T04:49:33;16.10;;;4.40;;
8480;SDS011;4277;51.354;6.740;2023-02-01T04:51:59;15.30;;;3.80;;
8480;SDS011;4277;51.354;6.740;2023-02-01T04:54:24;13.33;;;3.97;;
8480;SDS011;4277;51.354;6.740;2023-02-01T04:56:50;15.13;;;4.40;;
8480;SDS011;4277;51.354;6.740;2023-02-01T04:59:16;13.13;;;3.50;;
8480;SDS011;4277;51.354;6.740;2023-02-01T05:01:43;18.13;;;4.10;;
8480;SDS011;4277;51.354;6.740;2023-02-01T05:04:09;17.63;;;4.23;;
8480;SDS011;4277;51.354;6.740;2023-02-01T05:06:34;24.20;;;4.33;;
8480;SDS011;4277;51.354;6.740;2023-02-01T05:09:00;20.67;;;4.27;;
8480;SDS011;4277;51.354;6.740;2023-02-01T05:11:26;17.70;;;4.50;;
8480;SDS011;4277;51.354;6.740;2023-02-01T05:14:11;17.17;;;3.77;;
8480;SDS011;4277;51.354;6.740;2023-02-01T05:16:37;20.23;;;4.03;;
8480;SDS011;4277;51.354;6.740;2023-02-01T05:19:03;18.47;;;4.27;;
8480;SDS011;4277;51.354;6.740;2023-02-01T05:21:29;16.13;;;3.73;;
8480;SDS011;4277;51.354;6.740;2023-02-01T05:23:55;15.90;;;3.70;;
8480;SDS011;4277;51.354;6.740;2023-02-01T05:26:44;14.40;;;4.00;;
8480;SDS011;4277;51.354;6.740;2023-02-01T05:29:10;16.00;;;3.80;;
8480;SDS011;4277;51.354;6.740;2023-02-01T05:31:37;19.23;;;4.47;;
8480;SDS011;4277;51.354;6.740;2023-02-01T05:34:03;16.60;;;3.70;;
8480;SDS011;4277;51.354;6.740;2023-02-01T05:36:29;18.47;;;3.77;;
8480;SDS011;4277;51.354;6.740;2023-02-01T05:38:55;18.53;;;4.40;;
8480;SDS011;4277;51.354;6.740;2023-02-01T05:41:21;23.97;;;4.93;;
8480;SDS011;4277;51.354;6.740;2023-02-01T05:43:47;13.77;;;3.90;;
8480;SDS011;4277;51.354;6.740;2023-02-01T05:46:13;16.77;;;4.23;;
8480;SDS011;4277;51.354;6.740;2023-02-01T05:48:39;12.67;;;3.60;;
8480;SDS011;4277;51.354;6.740;2023-02-01T05:51:05;19.73;;;4.80;;
8480;SDS011;4277;51.354;6.740;2023-02-01T05:53:31;15.33;;;3.93;;
8480;SDS011;4277;51.354;6.740;2023-02-01T05:55:57;16.20;;;4.20;;
8480;SDS011;4277;51.354;6.740;2023-02-01T05:58:23;14.90;;;4.07;;
8480;SDS011;4277;51.354;6.740;2023-02-01T06:00:49;21.47;;;4.17;;
8480;SDS011;4277;51.354;6.740;2023-02-01T06:03:15;19.07;;;4.30;;
8480;SDS011;4277;51.354;6.740;2023-02-01T06:05:43;17.40;;;4.00;;
8480;SDS011;4277;51.354;6.740;2023-02-01T06:08:09;20.60;;;4.10;;
8480;SDS011;4277;51.354;6.740;2023-02-01T06:10:35;15.73;;;4.00;;
8480;SDS011;4277;51.354;6.740;2023-02-01T06:13:01;17.50;;;4.03;;
8480;SDS011;4277;51.354;6.740;2023-02-01T06:15:28;17.90;;;4.50;;
8480;SDS011;4277;51.354;6.740;2023-02-01T06:17:54;17.27;;;4.33;;
8480;SDS011;4277;51.354;6.740;2023-02-01T06:20:20;21.73;;;4.10;;
8480;SDS011;4277;51.354;6.740;2023-02-01T06:22:46;22.03;;;4.37;;
8480;SDS011;4277;51.354;6.740;2023-02-01T06:25:12;18.40;;;3.57;;
8480;SDS011;4277;51.354;6.740;2023-02-01T06:27:38;19.77;;;4.13;;
8480;SDS011;4277;51.354;6.740;2023-02-01T06:30:04;16.70;;;4.13;;
8480;SDS011;4277;51.354;6.740;2023-02-01T06:32:30;18.57;;;4.17;;
8480;SDS011;4277;51.354;6.740;2023-02-01T06:34:56;17.67;;;3.70;;
8480;SDS011;4277;51.354;6.740;2023-02-01T06:37:24;18.70;;;4.40;;
8480;SDS011;4277;51.354;6.740;2023-02-01T06:39:52;19.47;;;4.60;;
8480;SDS011;4277;51.354;6.740;2023-02-01T06:42:18;16.70;;;3.90;;
8480;SDS011;4277;51.354;6.740;2023-02-01T06:44:44;21.80;;;4.03;;
8480;SDS011;4277;51.354;6.740;2023-02-01T06:47:10;18.40;;;4.43;;
8480;SDS011;4277;51.354;6.740;2023-02-01T06:49:36;19.30;;;4.47;;
8480;SDS011;4277;51.354;6.740;2023-02-01T06:52:02;17.33;;;3.63;;
8480;SDS011;4277;51.354;6.740;2023-02-01T06:54:28;18.20;;;4.10;;
8480;SDS011;4277;51.354;6.740;2023-02-01T06:56:57;14.50;;;3.50;;
8480;SDS011;4277;51.354;6.740;2023-02-01T06:59:23;16.53;;;4.23;;
8480;SDS011;4277;51.354;6.740;2023-02-01T07:01:49;16.47;;;3.10;;
8480;SDS011;4277;51.354;6.740;2023-02-01T07:04:15;24.57;;;3.80;;
8480;SDS011;4277;51.354;6.740;2023-02-01T07:06:41;21.07;;;3.60;;
8480;SDS011;4277;51.354;6.740;2023-02-01T07:09:07;19.50;;;4.77;;
8480;SDS011;4277;51.354;6.740;2023-02-01T07:11:33;17.70;;;4.17;;
8480;SDS011;4277;51.354;6.740;2023-02-01T07:13:59;18.93;;;4.13;;
8480;SDS011;4277;51.354;6.740;2023-02-01T07:16:25;18.57;;;3.70;;
8480;SDS011;4277;51.354;6.740;2023-02-01T07:18:51;18.77;;;4.47;;
8480;SDS011;4277;51.354;6.740;2023-02-01T07:21:18;20.70;;;4.57;;
8480;SDS011;4277;51.354;6.740;2023-02-01T07:23:44;17.93;;;4.20;;
8480;SDS011;4277;51.354;6.740;2023-02-01T07:26:11;16.50;;;3.97;;
8480;SDS011;4277;51.354;6.740;2023-02-01T07:28:38;20.97;;;4.27;;
8480;SDS011;4277;51.354;6.740;2023-02-01T07:31:09;18.07;;;3.73;;
8480;SDS011;4277;51.354;6.740;2023-02-01T07:33:35;22.60;;;4.10;;
8480;SDS011;4277;51.354;6.740;2023-02-01T07:36:02;20.60;;;4.60;;
8480;SDS011;4277;51.354;6.740;2023-02-01T07:38:29;20.70;;;4.43;;
8480;SDS011;4277;51.354;6.740;2023-02-01T07:40:58;18.20;;;4.30;;
8480;SDS011;4277;51.354;6.740;2023-02-01T07:43:25;12.43;;;3.53;;
8480;SDS011;4277;51.354;6.740;2023-02-01T07:45:51;20.83;;;4.03;;
8480;SDS011;4277;51.354;6.740;2023-02-01T07:48:18;17.63;;;3.77;;
8480;SDS011;4277;51.354;6.740;2023-02-01T07:50:44;19.20;;;4.30;;
8480;SDS011;4277;51.354;6.740;2023-02-01T07:53:10;16.97;;;3.87;;
8480;SDS011;4277;51.354;6.740;2023-02-01T07:55:37;15.23;;;3.93;;
8480;SDS011;4277;51.354;6.740;2023-02-01T07:58:03;19.83;;;3.90;;
8480;SDS011;4277;51.354;6.740;2023-02-01T08:00:29;15.27;;;3.97;;
8480;SDS011;4277;51.354;6.740;2023-02-01T08:03:14;17.60;;;3.87;;
8480;SDS011;4277;51.354;6.740;2023-02-01T08:05:39;16.97;;;3.57;;
8480;SDS011;4277;51.354;6.740;2023-02-01T08:08:05;17.33;;;4.03;;
8480;SDS011;4277;51.354;6.740;2023-02-01T08:10:32;13.90;;;3.13;;
8480;SDS011;4277;51.354;6.740;2023-02-01T08:12:59;18.13;;;4.53;;
8480;SDS011;4277;51.354;6.740;2023-02-01T08:15:29;23.83;;;4.27;;
8480;SDS011;4277;51.354;6.740;2023-02-01T08:17:55;18.53;;;4.00;;
8480;SDS011;4277;51.354;6.740;2023-02-01T08:20:22;18.20;;;4.57;;
8480;SDS011;4277;51.354;6.740;2023-02-01T08:22:49;19.57;;;4.00;;
8480;SDS011;4277;51.354;6.740;2023-02-01T08:25:15;17.70;;;3.83;;
8480;SDS011;4277;51.354;6.740;2023-02-01T08:27:41;17.57;;;4.00;;
8480;SDS011;4277;51.354;6.740;2023-02-01T08:30:07;16.50;;;4.30;;
8480;SDS011;4277;51.354;6.740;2023-02-01T08:32:33;21.87;;;4.90;;
8480;SDS011;4277;51.354;6.740;2023-02-01T08:35:00;19.10;;;3.93;;
8480;SDS011;4277;51.354;6.740;2023-02-01T08:37:26;19.30;;;3.93;;
8480;SDS011;4277;51.354;6.740;2023-02-01T08:39:52;18.10;;;3.90;;
8480;SDS011;4277;51.354;6.740;2023-02-01T08:42:18;19.53;;;4.40;;
8480;SDS011;4277;51.354;6.740;2023-02-01T08:45:03;21.77;;;4.73;;
8480;SDS011;4277;51.354;6.740;2023-02-01T08:47:29;17.80;;;4.43;;
8480;SDS011;4277;51.354;6.740;2023-02-01T08:49:55;18.50;;;4.37;;
8480;SDS011;4277;51.354;6.740;2023-02-01T08:52:21;16.20;;;4.47;;
8480;SDS011;4277;51.354;6.740;2023-02-01T08:54:47;21.53;;;4.50;;
8480;SDS011;4277;51.354;6.740;2023-02-01T08:57:14;17.57;;;4.20;;
8480;SDS011;4277;51.354;6.740;2023-02-01T08:59:40;18.63;;;4.53;;
8480;SDS011;4277;51.354;6.740;2023-02-01T09:02:08;14.93;;;4.13;;
8480;SDS011;4277;51.354;6.740;2023-02-01T09:04:34;16.03;;;3.93;;
8480;SDS011;4277;51.354;6.740;2023-02-01T09:07:00;18.30;;;4.00;;
8480;SDS011;4277;51.354;6.740;2023-02-01T09:09:27;23.90;;;4.37;;
8480;SDS011;4277;51.354;6.740;2023-02-01T09:11:53;24.17;;;4.50;;
8480;SDS011;4277;51.354;6.740;2023-02-01T09:14:19;15.63;;;3.83;;
8480;SDS011;4277;51.354;6.740;2023-02-01T09:16:45;20.13;;;4.40;;
8480;SDS011;4277;51.354;6.740;2023-02-01T09:19:11;22.40;;;4.90;;
8480;SDS011;4277;51.354;6.740;2023-02-01T09:21:37;17.80;;;4.57;;
8480;SDS011;4277;51.354;6.740;2023-02-01T09:24:03;15.67;;;4.20;;
8480;SDS011;4277;51.354;6.740;2023-02-01T09:26:29;18.73;;;4.90;;
8480;SDS011;4277;51.354;6.740;2023-02-01T09:28:55;17.23;;;4.60;;
8480;SDS011;4277;51.354;6.740;2023-02-01T09:31:21;15.83;;;3.90;;
8480;SDS011;4277;51.354;6.740;2023-02-01T09:33:47;16.70;;;4.10;;
8480;SDS011;4277;51.354;6.740;2023-02-01T09:36:13;16.53;;;3.83;;
8480;SDS011;4277;51.354;6.740;2023-02-01T09:38:39;16.27;;;4.43;;
8480;SDS011;4277;51.354;6.740;2023-02-01T09:41:26;15.13;;;4.07;;
8480;SDS011;4277;51.354;6.740;2023-02-01T09:43:58;16.10;;;3.90;;
8480;SDS011;4277;51.354;6.740;2023-02-01T09:48:53;16.23;;;4.23;;
8480;SDS011;4277;51.354;6.740;2023-02-01T09:51:23;15.20;;;4.47;;
8480;SDS011;4277;51.354;6.740;2023-02-01T09:53:58;15.03;;;4.10;;
8480;SDS011;4277;51.354;6.740;2023-02-01T09:56:27;17.07;;;4.40;;
8480;SDS011;4277;51.354;6.740;2023-02-01T10:01:23;16.87;;;4.47;;
8480;SDS011;4277;51.354;6.740;2023-02-01T10:03:55;20.13;;;4.23;;
8480;SDS011;4277;51.354;6.740;2023-02-01T10:06:31;14.90;;;3.80;;
8480;SDS011;4277;51.354;6.740;2023-02-01T10:14:17;18.53;;;4.33;;
8480;SDS011;4277;51.354;6.740;2023-02-01T10:16:51;18.87;;;4.57;;
8480;SDS011;4277;51.354;6.740;2023-02-01T10:21:58;26.47;;;4.90;;
8480;SDS011;4277;51.354;6.740;2023-02-01T10:29:24;15.87;;;4.63;;
8480;SDS011;4277;51.354;6.740;2023-02-01T10:31:52;18.67;;;4.20;;
8480;SDS011;4277;51.354;6.740;2023-02-01T10:34:22;13.63;;;4.23;;
8480;SDS011;4277;51.354;6.740;2023-02-01T10:36:57;20.43;;;4.23;;
8480;SDS011;4277;51.354;6.740;2023-02-01T10:39:25;14.63;;;3.67;;
8480;SDS011;4277;51.354;6.740;2023-02-01T10:41:51;13.90;;;4.50;;
8480;SDS011;4277;51.354;6.740;2023-02-01T10:44:20;14.97;;;4.30;;
8480;SDS011;4277;51.354;6.740;2023-02-01T10:46:48;16.63;;;4.20;;
8480;SDS011;4277;51.354;6.740;2023-02-01T10:49:32;15.30;;;3.87;;
8480;SDS011;4277;51.354;6.740;2023-02-01T10:52:05;15.40;;;4.20;;
8480;SDS011;4277;51.354;6.740;2023-02-01T10:54:38;14.80;;;4.37;;
8480;SDS011;4277;51.354;6.740;2023-02-01T10:57:07;16.60;;;3.97;;
8480;SDS011;4277;51.354;6.740;2023-02-01T10:59:33;19.27;;;4.83;;
8480;SDS011;4277;51.354;6.740;2023-02-01T11:02:02;17.23;;;4.20;;
8480;SDS011;4277;51.354;6.740;2023-02-01T11:04:33;16.67;;;4.57;;
8480;SDS011;4277;51.354;6.740;2023-02-01T11:07:05;16.80;;;3.93;;
8480;SDS011;4277;51.354;6.740;2023-02-01T11:09:32;15.13;;;4.27;;
8480;SDS011;4277;51.354;6.740;2023-02-01T11:12:00;19.93;;;4.50;;
8480;SDS011;4277;51.354;6.740;2023-02-01T11:14:28;15.77;;;3.87;;
8480;SDS011;4277;51.354;6.740;2023-02-01T11:16:58;10.40;;;3.30;;
8480;SDS011;4277;51.354;6.740;2023-02-01T11:19:25;12.23;;;3.70;;
8480;SDS011;4277;51.354;6.740;2023-02-01T11:21:52;9.20;;;2.67;;
8480;SDS011;4277;51.354;6.740;2023-02-01T11:24:22;14.23;;;3.40;;
8480;SDS011;4277;51.354;6.740;2023-02-01T11:26:49;16.67;;;4.30;;
8480;SDS011;4277;51.354;6.740;2023-02-01T11:29:16;13.60;;;4.10;;
8480;SDS011;4277;51.354;6.740;2023-02-01T11:31:44;16.07;;;3.90;;
8480;SDS011;4277;51.354;6.740;2023-02-01T11:34:12;17.73;;;4.20;;
8480;SDS011;4277;51.354;6.740;2023-02-01T11:36:39;12.40;;;3.90;;
8480;SDS011;4277;51.354;6.740;2023-02-01T11:41:41;16.67;;;3.57;;
8480;SDS011;4277;51.354;6.740;2023-02-01T11:44:21;14.53;;;3.97;;
8480;SDS011;4277;51.354;6.740;2023-02-01T11:46:47;16.87;;;4.13;;
8480;SDS011;4277;51.354;6.740;2023-02-01T11:49:19;14.33;;;4.27;;
8480;SDS011;4277;51.354;6.740;2023-02-01T11:51:52;18.73;;;4.47;;
8480;SDS011;4277;51.354;6.740;2023-02-01T11:57:14;14.17;;;4.00;;
8480;SDS011;4277;51.354;6.740;2023-02-01T11:59:57;15.03;;;3.60;;
8480;SDS011;4277;51.354;6.740;2023-02-01T12:10:25;15.53;;;3.83;;
8480;SDS011;4277;51.354;6.740;2023-02-01T12:15:40;16.17;;;4.03;;
8480;SDS011;4277;51.354;6.740;2023-02-01T12:23:42;11.10;;;3.70;;
8480;SDS011;4277;51.354;6.740;2023-02-01T12:31:16;13.57;;;3.37;;
8480;SDS011;4277;51.354;6.740;2023-02-01T12:36:46;16.50;;;4.17;;
8480;SDS011;4277;51.354;6.740;2023-02-01T12:44:41;10.13;;;3.10;;
8480;SDS011;4277;51.354;6.740;2023-02-01T12:47:17;16.30;;;3.50;;
8480;SDS011;4277;51.354;6.740;2023-02-01T12:49:50;15.40;;;3.90;;
8480;SDS011;4277;51.354;6.740;2023-02-01T12:52:23;12.53;;;3.73;;
8480;SDS011;4277;51.354;6.740;2023-02-01T12:54:59;13.03;;;3.40;;
8480;SDS011;4277;51.354;6.740;2023-02-01T12:57:28;18.87;;;3.90;;
8480;SDS011;4277;51.354;6.740;2023-02-01T12:59:59;16.13;;;3.90;;
8480;SDS011;4277;51.354;6.740;2023-02-01T13:05:33;13.07;;;2.80;;
8480;SDS011;4277;51.354;6.740;2023-02-01T13:08:06;15.53;;;3.67;;
8480;SDS011;4277;51.354;6.740;2023-02-01T13:18:32;9.50;;;2.83;;
8480;SDS011;4277;51.354;6.740;2023-02-01T13:21:03;9.30;;;3.00;;
8480;SDS011;4277;51.354;6.740;2023-02-01T13:23:31;13.37;;;3.60;;
8480;SDS011;4277;51.354;6.740;2023-02-01T13:25:58;13.27;;;3.10;;
8480;SDS011;4277;51.354;6.740;2023-02-01T13:28:28;13.97;;;2.97;;
8480;SDS011;4277;51.354;6.740;2023-02-01T13:31:09;14.13;;;3.10;;
8480;SDS011;4277;51.354;6.740;2023-02-01T13:43:49;11.13;;;2.90;;
8480;SDS011;4277;51.354;6.740;2023-02-01T13:46:16;10.10;;;2.47;;
8480;SDS011;4277;51.354;6.740;2023-02-01T13:51:11;14.93;;;2.60;;
8480;SDS011;4277;51.354;6.740;2023-02-01T13:53:38;12.47;;;3.00;;
8480;SDS011;4277;51.354;6.740;2023-02-01T13:56:11;10.57;;;2.83;;
8480;SDS011;4277;51.354;6.740;2023-02-01T13:58:40;10.33;;;2.57;;
8480;SDS011;4277;51.354;6.740;2023-02-01T14:11:41;12.53;;;2.57;;
8480;SDS011;4277;51.354;6.740;2023-02-01T14:16:39;11.07;;;2.50;;
8480;SDS011;4277;51.354;6.740;2023-02-01T14:19:17;16.53;;;2.97;;
8480;SDS011;4277;51.354;6.740;2023-02-01T14:21:48;11.73;;;2.93;;
8480;SDS011;4277;51.354;6.740;2023-02-01T14:24:25;9.20;;;2.50;;
8480;SDS011;4277;51.354;6.740;2023-02-01T14:26:52;13.17;;;3.07;;
8480;SDS011;4277;51.354;6.740;2023-02-01T14:34:16;15.07;;;3.47;;
8480;SDS011;4277;51.354;6.740;2023-02-01T14:36:47;11.13;;;2.70;;
8480;SDS011;4277;51.354;6.740;2023-02-01T14:39:22;9.27;;;2.37;;
8480;SDS011;4277;51.354;6.740;2023-02-01T14:41:51;10.60;;;2.90;;
8480;SDS011;4277;51.354;6.740;2023-02-01T14:44:23;9.17;;;2.70;;
8480;SDS011;4277;51.354;6.740;2023-02-01T14:47:02;12.90;;;2.60;;
8480;SDS011;4277;51.354;6.740;2023-02-01T14:49:30;11.67;;;2.40;;
8480;SDS011;4277;51.354;6.740;2023-02-01T14:51:57;13.97;;;2.90;;
8480;SDS011;4277;51.354;6.740;2023-02-01T14:54:24;14.33;;;3.33;;
8480;SDS011;4277;51.354;6.740;2023-02-01T14:56:50;14.13;;;2.80;;
8480;SDS011;4277;51.354;6.740;2023-02-01T14:59:17;12.77;;;2.80;;
8480;SDS011;4277;51.354;6.740;2023-02-01T15:01:52;12.20;;;2.67;;
8480;SDS011;4277;51.354;6.740;2023-02-01T15:04:19;13.50;;;3.03;;
8480;SDS011;4277;51.354;6.740;2023-02-01T15:06:50;14.07;;;2.80;;
8480;SDS011;4277;51.354;6.740;2023-02-01T15:09:21;14.93;;;2.80;;
8480;SDS011;4277;51.354;6.740;2023-02-01T15:12:32;14.37;;;3.20;;
8480;SDS011;4277;51.354;6.740;2023-02-01T15:17:23;13.60;;;2.87;;
8480;SDS011;4277;51.354;6.740;2023-02-01T15:19:56;11.53;;;3.00;;
8480;SDS011;4277;51.354;6.740;2023-02-01T15:22:22;11.73;;;2.93;;
8480;SDS011;4277;51.354;6.740;2023-02-01T15:24:55;11.37;;;2.67;;
8480;SDS011;4277;51.354;6.740;2023-02-01T15:27:21;19.83;;;2.83;;
8480;SDS011;4277;51.354;6.740;2023-02-01T15:29:48;14.43;;;3.20;;
8480;SDS011;4277;51.354;6.740;2023-02-01T15:34:58;17.47;;;3.10;;
8480;SDS011;4277;51.354;6.740;2023-02-01T15:37:25;11.97;;;2.77;;
8480;SDS011;4277;51.354;6.740;2023-02-01T15:40:02;11.60;;;3.23;;
8480;SDS011;4277;51.354;6.740;2023-02-01T15:42:28;11.53;;;2.77;;
8480;SDS011;4277;51.354;6.740;2023-02-01T15:44:54;15.13;;;3.10;;
8480;SDS011;4277;51.354;6.740;2023-02-01T15:47:24;13.40;;;2.63;;
8480;SDS011;4277;51.354;6.740;2023-02-01T15:49:51;12.90;;;2.77;;
8480;SDS011;4277;51.354;6.740;2023-02-01T15:52:35;16.87;;;3.43;;
8480;SDS011;4277;51.354;6.740;2023-02-01T15:55:03;16.87;;;2.97;;
8480;SDS011;4277;51.354;6.740;2023-02-01T15:57:38;16.97;;;3.33;;
8480;SDS011;4277;51.354;6.740;2023-02-01T16:00:06;12.07;;;2.80;;
8480;SDS011;4277;51.354;6.740;2023-02-01T16:02:34;14.20;;;3.30;;
8480;SDS011;4277;51.354;6.740;2023-02-01T16:05:03;10.80;;;3.17;;
8480;SDS011;4277;51.354;6.740;2023-02-01T16:07:30;10.67;;;2.63;;
8480;SDS011;4277;51.354;6.740;2023-02-01T16:09:58;13.73;;;3.50;;
8480;SDS011;4277;51.354;6.740;2023-02-01T16:14:50;14.73;;;2.90;;
8480;SDS011;4277;51.354;6.740;2023-02-01T16:17:16;14.70;;;3.20;;
8480;SDS011;4277;51.354;6.740;2023-02-01T16:19:42;12.17;;;2.90;;
8480;SDS011;4277;51.354;6.740;2023-02-01T16:22:08;17.07;;;3.60;;
8480;SDS011;4277;51.354;6.740;2023-02-01T16:24:34;10.83;;;2.80;;
8480;SDS011;4277;51.354;6.740;2023-02-01T16:27:00;15.37;;;3.87;;
8480;SDS011;4277;51.354;6.740;2023-02-01T16:29:27;18.63;;;3.87;;
8480;SDS011;4277;51.354;6.740;2023-02-01T16:31:53;14.00;;;2.90;;
8480;SDS011;4277;51.354;6.740;2023-02-01T16:34:19;18.03;;;3.40;;
8480;SDS011;4277;51.354;6.740;2023-02-01T16:36:49;12.97;;;3.03;;
8480;SDS011;4277;51.354;6.740;2023-02-01T16:39:21;17.07;;;3.60;;
8480;SDS011;4277;51.354;6.740;2023-02-01T16:41:47;17.43;;;3.50;;
8480;SDS011;4277;51.354;6.740;2023-02-01T16:44:13;17.10;;;3.80;;
8480;SDS011;4277;51.354;6.740;2023-02-01T16:46:41;15.83;;;3.23;;
8480;SDS011;4277;51.354;6.740;2023-02-01T16:49:16;11.13;;;2.83;;
8480;SDS011;4277;51.354;6.740;2023-02-01T16:51:43;15.90;;;3.60;;
8480;SDS011;4277;51.354;6.740;2023-02-01T16:54:09;14.17;;;3.30;;
8480;SDS011;4277;51.354;6.740;2023-02-01T16:56:35;11.70;;;2.80;;
8480;SDS011;4277;51.354;6.740;2023-02-01T16:59:04;12.50;;;3.00;;
8480;SDS011;4277;51.354;6.740;2023-02-01T17:01:30;14.33;;;3.20;;
8480;SDS011;4277;51.354;6.740;2023-02-01T17:03:56;10.40;;;3.23;;
8480;SDS011;4277;51.354;6.740;2023-02-01T17:06:23;12.63;;;3.00;;
8480;SDS011;4277;51.354;6.740;2023-02-01T17:08:50;11.97;;;3.17;;
8480;SDS011;4277;51.354;6.740;2023-02-01T17:11:17;19.57;;;3.83;;
8480;SDS011;4277;51.354;6.740;2023-02-01T17:13:43;13.47;;;3.60;;
8480;SDS011;4277;51.354;6.740;2023-02-01T17:18:36;18.30;;;3.27;;
8480;SDS011;4277;51.354;6.740;2023-02-01T17:21:02;14.77;;;3.47;;
8480;SDS011;4277;51.354;6.740;2023-02-01T17:23:29;8.87;;;2.60;;
8480;SDS011;4277;51.354;6.740;2023-02-01T17:25:55;15.33;;;3.33;;
8480;SDS011;4277;51.354;6.740;2023-02-01T17:28:22;12.20;;;3.20;;